sensor_id;sensor_type;location;lat;lon;timestamp;temperature;humidity
19206;DHT22;59358;52.134;5.596;2024-02-21T00:01:29;10.00;99.90
19206;DHT22;59358;52.134;5.596;2024-02-21T00:03:55;9.90;99.90
19206;DHT22;59358;52.134;5.596;2024-02-21T00:06:22;9.90;99.90
19206;DHT22;59358;52.134;5.596;2024-02-21T00:08:49;9.90;99.90
19206;DHT22;59358;52.134;5.596;2024-02-21T00:11:16;9.90;99.90
19206;DHT22;59358;52.134;5.596;2024-02-21T00:13:42;9.90;99.90
19206;DHT22;59358;52.134;5.596;2024-02-21T00:16:10;9.90;99.90
19206;DHT22;59358;52.134;5.596;2024-02-21T00:18:39;9.90;99.90
19206;DHT22;59358;52.134;5.596;2024-02-21T00:21:05;9.90;99.90
19206;DHT22;59358;52.134;5.596;2024-02-21T00:23:32;9.90;99.90
19206;DHT22;59358;52.134;5.596;2024-02-21T00:25:59;9.90;99.90
19206;DHT22;59358;52.134;5.596;2024-02-21T00:28:25;9.80;99.90
19206;DHT22;59358;52.134;5.596;2024-02-21T00:30:52;9.80;99.90
19206;DHT22;59358;52.134;5.596;2024-02-21T00:33:21;9.90;99.90
19206;DHT22;59358;52.134;5.596;2024-02-21T00:35:48;9.80;99.90
19206;DHT22;59358;52.134;5.596;2024-02-21T00:38:15;9.80;99.90
19206;DHT22;59358;52.134;5.596;2024-02-21T00:40:42;9.80;99.90
19206;DHT22;59358;52.134;5.596;2024-02-21T00:43:09;9.80;99.90
19206;DHT22;59358;52.134;5.596;2024-02-21T00:45:36;9.80;99.90
19206;DHT22;59358;52.134;5.596;2024-02-21T00:48:03;9.90;99.90
19206;DHT22;59358;52.134;5.596;2024-02-21T00:50:31;9.80;99.90
19206;DHT22;59358;52.134;5.596;2024-02-21T00:52:58;9.80;99.90
19206;DHT22;59358;52.134;5.596;2024-02-21T00:55:25;9.80;99.90
19206;DHT22;59358;52.134;5.596;2024-02-21T00:57:52;9.90;99.90
19206;DHT22;59358;52.134;5.596;2024-02-21T01:00:19;9.90;99.90
19206;DHT22;59358;52.134;5.596;2024-02-21T01:02:46;9.90;99.90
19206;DHT22;59358;52.134;5.596;2024-02-21T01:05:13;9.90;99.90
19206;DHT22;59358;52.134;5.596;2024-02-21T01:07:41;9.90;99.90
19206;DHT22;59358;52.134;5.596;2024-02-21T01:10:08;9.80;99.90
19206;DHT22;59358;52.134;5.596;2024-02-21T01:12:36;9.90;99.90
19206;DHT22;59358;52.134;5.596;2024-02-21T01:15:03;9.90;99.90
19206;DHT22;59358;52.134;5.596;2024-02-21T01:17:30;9.90;99.90
19206;DHT22;59358;52.134;5.596;2024-02-21T01:19:57;9.90;99.90
19206;DHT22;59358;52.134;5.596;2024-02-21T01:22:23;9.90;99.90
19206;DHT22;59358;52.134;5.596;2024-02-21T01:24:51;9.80;99.90
19206;DHT22;59358;52.134;5.596;2024-02-21T01:27:18;9.80;99.90
19206;DHT22;59358;52.134;5.596;2024-02-21T01:29:46;9.90;99.90
19206;DHT22;59358;52.134;5.596;2024-02-21T01:32:15;9.80;99.90
19206;DHT22;59358;52.134;5.596;2024-02-21T01:34:41;9.80;99.90
19206;DHT22;59358;52.134;5.596;2024-02-21T01:37:08;9.70;99.90
19206;DHT22;59358;52.134;5.596;2024-02-21T01:39:35;9.70;99.90
19206;DHT22;59358;52.134;5.596;2024-02-21T01:42:04;9.70;99.90
19206;DHT22;59358;52.134;5.596;2024-02-21T01:44:31;9.80;99.90
19206;DHT22;59358;52.134;5.596;2024-02-21T01:46:58;9.80;99.90
19206;DHT22;59358;52.134;5.596;2024-02-21T01:49:25;9.80;99.90
19206;DHT22;59358;52.134;5.596;2024-02-21T01:51:52;9.70;99.90
19206;DHT22;59358;52.134;5.596;2024-02-21T01:54:19;9.70;99.90
19206;DHT22;59358;52.134;5.596;2024-02-21T01:56:47;9.60;99.90
19206;DHT22;59358;52.134;5.596;2024-02-21T01:59:15;9.70;99.90
19206;DHT22;59358;52.134;5.596;2024-02-21T02:01:43;9.70;99.90
19206;DHT22;59358;52.134;5.596;2024-02-21T02:04:10;9.70;99.90
19206;DHT22;59358;52.134;5.596;2024-02-21T02:06:37;9.70;99.90
19206;DHT22;59358;52.134;5.596;2024-02-21T02:09:04;9.70;99.90
19206;DHT22;59358;52.134;5.596;2024-02-21T02:11:32;9.60;99.90
19206;DHT22;59358;52.134;5.596;2024-02-21T02:13:59;9.70;99.90
19206;DHT22;59358;52.134;5.596;2024-02-21T02:16:27;9.70;99.90
19206;DHT22;59358;52.134;5.596;2024-02-21T02:18:53;9.70;99.90
19206;DHT22;59358;52.134;5.596;2024-02-21T02:21:27;9.60;99.90
19206;DHT22;59358;52.134;5.596;2024-02-21T02:23:57;9.70;99.90
19206;DHT22;59358;52.134;5.596;2024-02-21T02:26:23;9.70;99.90
19206;DHT22;59358;52.134;5.596;2024-02-21T02:28:50;9.70;99.90
19206;DHT22;59358;52.134;5.596;2024-02-21T02:31:17;9.60;99.90
19206;DHT22;59358;52.134;5.596;2024-02-21T02:33:44;9.70;99.90
19206;DHT22;59358;52.134;5.596;2024-02-21T02:36:12;9.70;99.90
19206;DHT22;59358;52.134;5.596;2024-02-21T02:38:38;9.70;99.90
19206;DHT22;59358;52.134;5.596;2024-02-21T02:41:07;9.60;99.90
19206;DHT22;59358;52.134;5.596;2024-02-21T02:43:33;9.70;99.90
19206;DHT22;59358;52.134;5.596;2024-02-21T02:46:02;9.70;99.90
19206;DHT22;59358;52.134;5.596;2024-02-21T02:48:29;9.70;99.90
19206;DHT22;59358;52.134;5.596;2024-02-21T02:50:56;9.70;99.90
19206;DHT22;59358;52.134;5.596;2024-02-21T02:53:23;9.80;99.90
19206;DHT22;59358;52.134;5.596;2024-02-21T02:55:49;9.70;99.90
19206;DHT22;59358;52.134;5.596;2024-02-21T02:58:18;9.70;99.90
19206;DHT22;59358;52.134;5.596;2024-02-21T03:00:45;9.70;99.90
19206;DHT22;59358;52.134;5.596;2024-02-21T03:03:11;9.70;99.90
19206;DHT22;59358;52.134;5.596;2024-02-21T03:05:38;9.70;99.90
19206;DHT22;59358;52.134;5.596;2024-02-21T03:08:05;9.70;99.90
19206;DHT22;59358;52.134;5.596;2024-02-21T03:10:33;9.60;99.90
19206;DHT22;59358;52.134;5.596;2024-02-21T03:13:00;9.70;99.90
19206;DHT22;59358;52.134;5.596;2024-02-21T03:15:28;9.70;99.90
19206;DHT22;59358;52.134;5.596;2024-02-21T03:17:54;9.70;99.90
19206;DHT22;59358;52.134;5.596;2024-02-21T03:20:22;9.80;99.90
19206;DHT22;59358;52.134;5.596;2024-02-21T03:22:49;9.70;99.90
19206;DHT22;59358;52.134;5.596;2024-02-21T03:25:16;9.70;99.90
19206;DHT22;59358;52.134;5.596;2024-02-21T03:27:42;9.70;99.90
19206;DHT22;59358;52.134;5.596;2024-02-21T03:30:10;9.70;99.90
19206;DHT22;59358;52.134;5.596;2024-02-21T03:32:39;9.60;99.90
19206;DHT22;59358;52.134;5.596;2024-02-21T03:35:06;9.70;99.90
19206;DHT22;59358;52.134;5.596;2024-02-21T03:37:34;9.60;99.90
19206;DHT22;59358;52.134;5.596;2024-02-21T03:40:01;9.70;99.90
19206;DHT22;59358;52.134;5.596;2024-02-21T03:42:28;9.60;99.90
19206;DHT22;59358;52.134;5.596;2024-02-21T03:44:55;9.60;99.90
19206;DHT22;59358;52.134;5.596;2024-02-21T03:47:22;9.60;99.90
19206;DHT22;59358;52.134;5.596;2024-02-21T03:49:50;9.50;99.90
19206;DHT22;59358;52.134;5.596;2024-02-21T03:52:17;9.50;99.90
19206;DHT22;59358;52.134;5.596;2024-02-21T03:54:44;9.50;99.90
19206;DHT22;59358;52.134;5.596;2024-02-21T03:57:11;9.60;99.90
19206;DHT22;59358;52.134;5.596;2024-02-21T03:59:37;9.50;99.90
19206;DHT22;59358;52.134;5.596;2024-02-21T04:02:05;9.50;99.90
19206;DHT22;59358;52.134;5.596;2024-02-21T04:04:34;9.40;99.90
19206;DHT22;59358;52.134;5.596;2024-02-21T04:07:04;9.50;99.90
19206;DHT22;59358;52.134;5.596;2024-02-21T04:09:32;9.50;99.90
19206;DHT22;59358;52.134;5.596;2024-02-21T04:11:59;9.50;99.90
19206;DHT22;59358;52.134;5.596;2024-02-21T04:14:26;9.50;99.90
19206;DHT22;59358;52.134;5.596;2024-02-21T04:16:52;9.50;99.90
19206;DHT22;59358;52.134;5.596;2024-02-21T04:19:19;9.60;99.90
19206;DHT22;59358;52.134;5.596;2024-02-21T04:21:46;9.60;99.90
19206;DHT22;59358;52.134;5.596;2024-02-21T04:24:14;9.60;99.90
19206;DHT22;59358;52.134;5.596;2024-02-21T04:26:41;9.50;99.90
19206;DHT22;59358;52.134;5.596;2024-02-21T04:29:09;9.50;99.90
19206;DHT22;59358;52.134;5.596;2024-02-21T04:31:36;9.50;99.90
19206;DHT22;59358;52.134;5.596;2024-02-21T04:34:02;9.50;99.90
19206;DHT22;59358;52.134;5.596;2024-02-21T04:36:29;9.50;99.90
19206;DHT22;59358;52.134;5.596;2024-02-21T04:38:56;9.50;99.90
19206;DHT22;59358;52.134;5.596;2024-02-21T04:41:24;9.50;99.90
19206;DHT22;59358;52.134;5.596;2024-02-21T04:43:51;9.50;99.90
19206;DHT22;59358;52.134;5.596;2024-02-21T04:46:18;9.50;99.90
19206;DHT22;59358;52.134;5.596;2024-02-21T04:48:45;9.50;99.90
19206;DHT22;59358;52.134;5.596;2024-02-21T04:51:12;9.50;99.90
19206;DHT22;59358;52.134;5.596;2024-02-21T04:53:39;9.50;99.90
19206;DHT22;59358;52.134;5.596;2024-02-21T04:56:06;9.50;99.90
19206;DHT22;59358;52.134;5.596;2024-02-21T04:58:37;9.50;99.90
19206;DHT22;59358;52.134;5.596;2024-02-21T05:01:04;9.50;99.90
19206;DHT22;59358;52.134;5.596;2024-02-21T05:03:31;9.40;99.90
19206;DHT22;59358;52.134;5.596;2024-02-21T05:05:59;9.40;99.90
19206;DHT22;59358;52.134;5.596;2024-02-21T05:08:25;9.40;99.90
19206;DHT22;59358;52.134;5.596;2024-02-21T05:10:52;9.50;99.90
19206;DHT22;59358;52.134;5.596;2024-02-21T05:13:19;9.50;99.90
19206;DHT22;59358;52.134;5.596;2024-02-21T05:15:47;9.40;99.90
19206;DHT22;59358;52.134;5.596;2024-02-21T05:18:14;9.40;99.90
19206;DHT22;59358;52.134;5.596;2024-02-21T05:20:41;9.40;99.90
19206;DHT22;59358;52.134;5.596;2024-02-21T05:23:08;9.40;99.90
19206;DHT22;59358;52.134;5.596;2024-02-21T05:25:34;9.40;99.90
19206;DHT22;59358;52.134;5.596;2024-02-21T05:28:01;9.40;99.90
19206;DHT22;59358;52.134;5.596;2024-02-21T05:30:28;9.50;99.90
19206;DHT22;59358;52.134;5.596;2024-02-21T05:32:57;9.40;99.90
19206;DHT22;59358;52.134;5.596;2024-02-21T05:35:26;9.40;99.90
19206;DHT22;59358;52.134;5.596;2024-02-21T05:37:53;9.40;99.90
19206;DHT22;59358;52.134;5.596;2024-02-21T05:40:20;9.40;99.90
19206;DHT22;59358;52.134;5.596;2024-02-21T05:42:46;9.40;99.90
19206;DHT22;59358;52.134;5.596;2024-02-21T05:45:13;9.40;99.90
19206;DHT22;59358;52.134;5.596;2024-02-21T05:47:41;9.40;99.90
19206;DHT22;59358;52.134;5.596;2024-02-21T05:50:10;9.40;99.90
19206;DHT22;59358;52.134;5.596;2024-02-21T05:52:36;9.40;99.90
19206;DHT22;59358;52.134;5.596;2024-02-21T05:55:04;9.40;99.90
19206;DHT22;59358;52.134;5.596;2024-02-21T05:57:32;9.40;99.90
19206;DHT22;59358;52.134;5.596;2024-02-21T05:59:59;9.40;99.90
19206;DHT22;59358;52.134;5.596;2024-02-21T06:02:27;9.50;99.90
19206;DHT22;59358;52.134;5.596;2024-02-21T06:04:53;9.40;99.90
19206;DHT22;59358;52.134;5.596;2024-02-21T06:07:21;9.40;99.90
19206;DHT22;59358;52.134;5.596;2024-02-21T06:09:48;9.40;99.90
19206;DHT22;59358;52.134;5.596;2024-02-21T06:12:15;9.30;99.90
19206;DHT22;59358;52.134;5.596;2024-02-21T06:14:41;9.30;99.90
19206;DHT22;59358;52.134;5.596;2024-02-21T06:17:08;9.30;99.90
19206;DHT22;59358;52.134;5.596;2024-02-21T06:19:35;9.30;99.90
19206;DHT22;59358;52.134;5.596;2024-02-21T06:22:02;9.30;99.90
19206;DHT22;59358;52.134;5.596;2024-02-21T06:24:34;9.20;99.90
19206;DHT22;59358;52.134;5.596;2024-02-21T06:27:02;9.20;99.90
19206;DHT22;59358;52.134;5.596;2024-02-21T06:29:28;9.10;99.90
19206;DHT22;59358;52.134;5.596;2024-02-21T06:31:55;9.10;99.90
19206;DHT22;59358;52.134;5.596;2024-02-21T06:34:22;9.20;99.90
19206;DHT22;59358;52.134;5.596;2024-02-21T06:36:49;9.20;99.90
19206;DHT22;59358;52.134;5.596;2024-02-21T06:39:16;9.20;99.90
19206;DHT22;59358;52.134;5.596;2024-02-21T06:41:44;9.20;99.90
19206;DHT22;59358;52.134;5.596;2024-02-21T06:44:12;9.10;99.90
19206;DHT22;59358;52.134;5.596;2024-02-21T06:46:39;9.10;99.90
19206;DHT22;59358;52.134;5.596;2024-02-21T06:49:05;9.10;99.90
19206;DHT22;59358;52.134;5.596;2024-02-21T06:51:32;9.10;99.90
19206;DHT22;59358;52.134;5.596;2024-02-21T06:54:00;9.10;99.90
19206;DHT22;59358;52.134;5.596;2024-02-21T06:56:27;9.10;99.90
19206;DHT22;59358;52.134;5.596;2024-02-21T06:58:56;9.10;99.90
19206;DHT22;59358;52.134;5.596;2024-02-21T07:01:22;9.20;99.90
19206;DHT22;59358;52.134;5.596;2024-02-21T07:03:49;9.10;99.90
19206;DHT22;59358;52.134;5.596;2024-02-21T07:06:16;9.10;99.90
19206;DHT22;59358;52.134;5.596;2024-02-21T07:08:43;9.00;99.90
19206;DHT22;59358;52.134;5.596;2024-02-21T07:11:11;9.10;99.90
19206;DHT22;59358;52.134;5.596;2024-02-21T07:13:37;9.10;99.90
19206;DHT22;59358;52.134;5.596;2024-02-21T07:16:06;9.10;99.90
19206;DHT22;59358;52.134;5.596;2024-02-21T07:18:33;9.20;99.90
19206;DHT22;59358;52.134;5.596;2024-02-21T07:21:00;9.20;99.90
19206;DHT22;59358;52.134;5.596;2024-02-21T07:23:27;9.20;99.90
19206;DHT22;59358;52.134;5.596;2024-02-21T07:25:53;9.10;99.90
19206;DHT22;59358;52.134;5.596;2024-02-21T07:28:20;9.10;99.90
19206;DHT22;59358;52.134;5.596;2024-02-21T07:30:47;9.10;99.90
19206;DHT22;59358;52.134;5.596;2024-02-21T07:33:15;9.10;99.90
19206;DHT22;59358;52.134;5.596;2024-02-21T07:35:42;9.10;99.90
19206;DHT22;59358;52.134;5.596;2024-02-21T07:38:10;9.10;99.90
19206;DHT22;59358;52.134;5.596;2024-02-21T07:40:38;9.10;99.90
19206;DHT22;59358;52.134;5.596;2024-02-21T07:43:04;9.10;99.90
19206;DHT22;59358;52.134;5.596;2024-02-21T07:45:31;9.20;99.90
19206;DHT22;59358;52.134;5.596;2024-02-21T07:47:58;9.20;99.90
19206;DHT22;59358;52.134;5.596;2024-02-21T07:50:26;9.20;99.90
19206;DHT22;59358;52.134;5.596;2024-02-21T07:52:53;9.20;99.90
19206;DHT22;59358;52.134;5.596;2024-02-21T07:55:20;9.30;99.90
19206;DHT22;59358;52.134;5.596;2024-02-21T07:57:47;9.40;99.90
19206;DHT22;59358;52.134;5.596;2024-02-21T08:00:14;9.40;99.90
19206;DHT22;59358;52.134;5.596;2024-02-21T08:02:45;9.40;99.90
19206;DHT22;59358;52.134;5.596;2024-02-21T08:05:12;9.50;99.90
19206;DHT22;59358;52.134;5.596;2024-02-21T08:07:40;9.50;99.90
19206;DHT22;59358;52.134;5.596;2024-02-21T08:10:08;9.50;99.90
19206;DHT22;59358;52.134;5.596;2024-02-21T08:12:35;9.40;99.90
19206;DHT22;59358;52.134;5.596;2024-02-21T08:15:02;9.50;99.90
19206;DHT22;59358;52.134;5.596;2024-02-21T08:17:30;9.50;99.90
19206;DHT22;59358;52.134;5.596;2024-02-21T08:19:56;9.60;99.90
19206;DHT22;59358;52.134;5.596;2024-02-21T08:22:23;9.60;99.90
19206;DHT22;59358;52.134;5.596;2024-02-21T08:24:51;9.60;99.90
19206;DHT22;59358;52.134;5.596;2024-02-21T08:27:18;9.70;99.90
19206;DHT22;59358;52.134;5.596;2024-02-21T08:29:45;9.70;99.90
19206;DHT22;59358;52.134;5.596;2024-02-21T08:32:12;9.70;99.90
19206;DHT22;59358;52.134;5.596;2024-02-21T08:34:39;9.70;99.90
19206;DHT22;59358;52.134;5.596;2024-02-21T08:37:06;9.80;99.90
19206;DHT22;59358;52.134;5.596;2024-02-21T08:39:33;9.80;99.90
19206;DHT22;59358;52.134;5.596;2024-02-21T08:42:01;9.90;99.90
19206;DHT22;59358;52.134;5.596;2024-02-21T08:44:28;9.80;99.90
19206;DHT22;59358;52.134;5.596;2024-02-21T08:46:55;9.90;99.90
19206;DHT22;59358;52.134;5.596;2024-02-21T08:49:22;9.90;99.90
19206;DHT22;59358;52.134;5.596;2024-02-21T08:51:49;9.90;99.90
19206;DHT22;59358;52.134;5.596;2024-02-21T08:54:16;9.80;99.90
19206;DHT22;59358;52.134;5.596;2024-02-21T08:56:43;9.90;99.90
19206;DHT22;59358;52.134;5.596;2024-02-21T08:59:11;9.90;99.90
19206;DHT22;59358;52.134;5.596;2024-02-21T09:01:38;9.90;99.90
19206;DHT22;59358;52.134;5.596;2024-02-21T09:04:05;10.00;99.90
19206;DHT22;59358;52.134;5.596;2024-02-21T09:06:33;9.90;99.90
19206;DHT22;59358;52.134;5.596;2024-02-21T09:09:02;9.90;99.90
19206;DHT22;59358;52.134;5.596;2024-02-21T09:11:29;9.90;99.90
19206;DHT22;59358;52.134;5.596;2024-02-21T09:13:56;9.90;99.90
19206;DHT22;59358;52.134;5.596;2024-02-21T09:16:25;9.90;99.90
19206;DHT22;59358;52.134;5.596;2024-02-21T09:18:52;10.00;99.90
19206;DHT22;59358;52.134;5.596;2024-02-21T09:21:19;10.00;99.90
19206;DHT22;59358;52.134;5.596;2024-02-21T09:23:45;9.90;99.90
19206;DHT22;59358;52.134;5.596;2024-02-21T09:26:12;9.90;99.90
19206;DHT22;59358;52.134;5.596;2024-02-21T09:28:42;9.90;99.90
19206;DHT22;59358;52.134;5.596;2024-02-21T09:31:08;10.00;99.90
19206;DHT22;59358;52.134;5.596;2024-02-21T09:33:36;9.90;99.90
19206;DHT22;59358;52.134;5.596;2024-02-21T09:36:04;10.00;99.90
19206;DHT22;59358;52.134;5.596;2024-02-21T09:38:31;10.00;99.90
19206;DHT22;59358;52.134;5.596;2024-02-21T09:41:00;10.10;99.90
19206;DHT22;59358;52.134;5.596;2024-02-21T09:43:31;10.20;99.90
19206;DHT22;59358;52.134;5.596;2024-02-21T09:46:00;10.20;99.90
19206;DHT22;59358;52.134;5.596;2024-02-21T09:48:45;10.20;99.90
19206;DHT22;59358;52.134;5.596;2024-02-21T09:51:15;10.10;99.90
19206;DHT22;59358;52.134;5.596;2024-02-21T09:53:44;10.00;99.90
19206;DHT22;59358;52.134;5.596;2024-02-21T09:56:13;10.00;99.90
19206;DHT22;59358;52.134;5.596;2024-02-21T09:58:40;10.00;99.90
19206;DHT22;59358;52.134;5.596;2024-02-21T10:01:07;10.10;99.90
19206;DHT22;59358;52.134;5.596;2024-02-21T10:03:34;10.20;99.90
19206;DHT22;59358;52.134;5.596;2024-02-21T10:06:02;10.20;99.90
19206;DHT22;59358;52.134;5.596;2024-02-21T10:08:29;10.40;99.90
19206;DHT22;59358;52.134;5.596;2024-02-21T10:10:56;10.30;99.90
19206;DHT22;59358;52.134;5.596;2024-02-21T10:13:26;10.40;99.90
19206;DHT22;59358;52.134;5.596;2024-02-21T10:16:03;10.40;99.90
19206;DHT22;59358;52.134;5.596;2024-02-21T10:18:30;10.40;99.90
19206;DHT22;59358;52.134;5.596;2024-02-21T10:21:03;10.40;99.90
19206;DHT22;59358;52.134;5.596;2024-02-21T10:23:41;10.50;99.90
19206;DHT22;59358;52.134;5.596;2024-02-21T10:26:08;10.50;99.90
19206;DHT22;59358;52.134;5.596;2024-02-21T10:28:34;10.60;99.90
19206;DHT22;59358;52.134;5.596;2024-02-21T10:31:01;10.60;99.90
19206;DHT22;59358;52.134;5.596;2024-02-21T10:33:28;10.70;99.90
19206;DHT22;59358;52.134;5.596;2024-02-21T10:36:07;10.70;99.90
19206;DHT22;59358;52.134;5.596;2024-02-21T10:38:36;10.90;99.90
19206;DHT22;59358;52.134;5.596;2024-02-21T10:41:04;10.80;99.90
19206;DHT22;59358;52.134;5.596;2024-02-21T10:43:37;10.90;99.90
19206;DHT22;59358;52.134;5.596;2024-02-21T10:46:06;11.00;99.90
19206;DHT22;59358;52.134;5.596;2024-02-21T10:48:38;10.90;99.90
19206;DHT22;59358;52.134;5.596;2024-02-21T10:51:16;10.90;99.90
19206;DHT22;59358;52.134;5.596;2024-02-21T10:53:47;10.90;99.90
19206;DHT22;59358;52.134;5.596;2024-02-21T10:56:23;10.90;99.90
19206;DHT22;59358;52.134;5.596;2024-02-21T10:58:53;11.00;99.90
19206;DHT22;59358;52.134;5.596;2024-02-21T11:01:21;10.90;99.90
19206;DHT22;59358;52.134;5.596;2024-02-21T11:03:51;10.90;99.90
19206;DHT22;59358;52.134;5.596;2024-02-21T11:06:21;10.90;99.90
19206;DHT22;59358;52.134;5.596;2024-02-21T11:09:02;10.90;99.90
19206;DHT22;59358;52.134;5.596;2024-02-21T11:11:30;10.90;99.90
19206;DHT22;59358;52.134;5.596;2024-02-21T11:14:05;11.10;99.90
19206;DHT22;59358;52.134;5.596;2024-02-21T11:16:36;11.20;99.90
19206;DHT22;59358;52.134;5.596;2024-02-21T11:19:05;11.20;99.90
19206;DHT22;59358;52.134;5.596;2024-02-21T11:21:34;11.20;99.90
19206;DHT22;59358;52.134;5.596;2024-02-21T11:24:02;11.10;99.90
19206;DHT22;59358;52.134;5.596;2024-02-21T11:26:30;10.90;99.90
19206;DHT22;59358;52.134;5.596;2024-02-21T11:28:58;10.60;99.90
19206;DHT22;59358;52.134;5.596;2024-02-21T11:31:26;10.60;99.90
19206;DHT22;59358;52.134;5.596;2024-02-21T11:33:54;10.50;99.90
19206;DHT22;59358;52.134;5.596;2024-02-21T11:36:24;10.30;99.90
19206;DHT22;59358;52.134;5.596;2024-02-21T11:38:52;10.20;99.90
19206;DHT22;59358;52.134;5.596;2024-02-21T11:41:19;10.20;99.90
19206;DHT22;59358;52.134;5.596;2024-02-21T11:43:48;10.30;99.90
19206;DHT22;59358;52.134;5.596;2024-02-21T11:46:15;10.20;99.90
19206;DHT22;59358;52.134;5.596;2024-02-21T11:48:42;10.20;99.90
19206;DHT22;59358;52.134;5.596;2024-02-21T11:51:09;10.10;99.90
19206;DHT22;59358;52.134;5.596;2024-02-21T11:53:37;10.00;99.90
19206;DHT22;59358;52.134;5.596;2024-02-21T11:56:05;10.00;99.90
19206;DHT22;59358;52.134;5.596;2024-02-21T11:58:32;10.10;99.90
19206;DHT22;59358;52.134;5.596;2024-02-21T12:00:59;10.10;99.90
19206;DHT22;59358;52.134;5.596;2024-02-21T12:03:28;10.10;99.90
19206;DHT22;59358;52.134;5.596;2024-02-21T12:05:55;10.00;99.90
19206;DHT22;59358;52.134;5.596;2024-02-21T12:08:24;10.10;99.90
19206;DHT22;59358;52.134;5.596;2024-02-21T12:10:51;10.20;99.90
19206;DHT22;59358;52.134;5.596;2024-02-21T12:13:23;10.50;99.90
19206;DHT22;59358;52.134;5.596;2024-02-21T12:15:49;10.70;99.90
19206;DHT22;59358;52.134;5.596;2024-02-21T12:18:16;10.80;99.90
19206;DHT22;59358;52.134;5.596;2024-02-21T12:20:43;11.00;99.90
19206;DHT22;59358;52.134;5.596;2024-02-21T12:23:11;11.30;99.90
19206;DHT22;59358;52.134;5.596;2024-02-21T12:25:39;11.30;99.90
19206;DHT22;59358;52.134;5.596;2024-02-21T12:28:05;11.50;99.90
19206;DHT22;59358;52.134;5.596;2024-02-21T12:30:34;11.40;99.90
19206;DHT22;59358;52.134;5.596;2024-02-21T12:33:04;11.50;99.90
19206;DHT22;59358;52.134;5.596;2024-02-21T12:35:30;11.60;99.90
19206;DHT22;59358;52.134;5.596;2024-02-21T12:37:58;11.50;99.90
19206;DHT22;59358;52.134;5.596;2024-02-21T12:40:27;11.50;99.90
19206;DHT22;59358;52.134;5.596;2024-02-21T12:42:58;11.30;99.90
19206;DHT22;59358;52.134;5.596;2024-02-21T12:45:25;11.30;99.90
19206;DHT22;59358;52.134;5.596;2024-02-21T12:47:53;11.40;99.90
19206;DHT22;59358;52.134;5.596;2024-02-21T12:50:20;11.20;99.90
19206;DHT22;59358;52.134;5.596;2024-02-21T12:52:48;11.30;99.90
19206;DHT22;59358;52.134;5.596;2024-02-21T12:55:15;11.40;99.90
19206;DHT22;59358;52.134;5.596;2024-02-21T12:57:42;11.40;99.90
19206;DHT22;59358;52.134;5.596;2024-02-21T13:00:10;11.50;99.90
19206;DHT22;59358;52.134;5.596;2024-02-21T13:02:37;11.50;99.90
19206;DHT22;59358;52.134;5.596;2024-02-21T13:05:06;11.50;99.90
19206;DHT22;59358;52.134;5.596;2024-02-21T13:07:34;11.50;99.90
19206;DHT22;59358;52.134;5.596;2024-02-21T13:10:01;11.40;99.90
19206;DHT22;59358;52.134;5.596;2024-02-21T13:12:29;11.50;99.90
19206;DHT22;59358;52.134;5.596;2024-02-21T13:14:56;11.50;99.90
19206;DHT22;59358;52.134;5.596;2024-02-21T13:17:22;11.50;99.90
19206;DHT22;59358;52.134;5.596;2024-02-21T13:19:49;11.50;99.90
19206;DHT22;59358;52.134;5.596;2024-02-21T13:22:18;11.60;99.90
19206;DHT22;59358;52.134;5.596;2024-02-21T13:24:45;11.50;99.90
19206;DHT22;59358;52.134;5.596;2024-02-21T13:27:12;11.60;99.90
19206;DHT22;59358;52.134;5.596;2024-02-21T13:29:39;11.40;99.90
19206;DHT22;59358;52.134;5.596;2024-02-21T13:32:06;11.20;99.90
19206;DHT22;59358;52.134;5.596;2024-02-21T13:34:33;11.10;99.90
19206;DHT22;59358;52.134;5.596;2024-02-21T13:37:00;11.10;99.90
19206;DHT22;59358;52.134;5.596;2024-02-21T13:39:29;11.10;99.90
19206;DHT22;59358;52.134;5.596;2024-02-21T13:41:56;11.00;99.90
19206;DHT22;59358;52.134;5.596;2024-02-21T13:44:24;11.00;99.90
19206;DHT22;59358;52.134;5.596;2024-02-21T13:46:51;11.00;99.90
19206;DHT22;59358;52.134;5.596;2024-02-21T13:49:17;11.00;99.90
19206;DHT22;59358;52.134;5.596;2024-02-21T13:51:44;11.10;99.90
19206;DHT22;59358;52.134;5.596;2024-02-21T13:54:11;11.10;99.90
19206;DHT22;59358;52.134;5.596;2024-02-21T13:56:43;11.10;99.90
19206;DHT22;59358;52.134;5.596;2024-02-21T13:59:11;11.10;99.90
19206;DHT22;59358;52.134;5.596;2024-02-21T14:01:38;11.10;99.90
19206;DHT22;59358;52.134;5.596;2024-02-21T14:04:05;11.10;99.90
19206;DHT22;59358;52.134;5.596;2024-02-21T14:06:32;11.10;99.90
19206;DHT22;59358;52.134;5.596;2024-02-21T14:08:59;11.10;99.90
19206;DHT22;59358;52.134;5.596;2024-02-21T14:11:26;11.20;99.90
19206;DHT22;59358;52.134;5.596;2024-02-21T14:13:54;11.10;99.90
19206;DHT22;59358;52.134;5.596;2024-02-21T14:16:22;11.10;99.90
19206;DHT22;59358;52.134;5.596;2024-02-21T14:18:49;11.10;99.90
19206;DHT22;59358;52.134;5.596;2024-02-21T14:21:16;11.10;99.90
19206;DHT22;59358;52.134;5.596;2024-02-21T14:23:43;11.10;99.90
19206;DHT22;59358;52.134;5.596;2024-02-21T14:26:10;11.10;99.90
19206;DHT22;59358;52.134;5.596;2024-02-21T14:28:37;11.20;99.90
19206;DHT22;59358;52.134;5.596;2024-02-21T14:31:05;11.20;99.90
19206;DHT22;59358;52.134;5.596;2024-02-21T14:33:34;11.20;99.90
19206;DHT22;59358;52.134;5.596;2024-02-21T14:36:01;11.10;99.90
19206;DHT22;59358;52.134;5.596;2024-02-21T14:38:29;11.10;99.90
19206;DHT22;59358;52.134;5.596;2024-02-21T14:40:55;11.10;99.90
19206;DHT22;59358;52.134;5.596;2024-02-21T14:43:22;11.10;99.90
19206;DHT22;59358;52.134;5.596;2024-02-21T14:45:49;11.30;99.90
19206;DHT22;59358;52.134;5.596;2024-02-21T14:48:17;11.10;99.90
19206;DHT22;59358;52.134;5.596;2024-02-21T14:50:44;11.10;99.90
19206;DHT22;59358;52.134;5.596;2024-02-21T14:53:11;11.00;99.90
19206;DHT22;59358;52.134;5.596;2024-02-21T14:55:38;11.00;99.90
19206;DHT22;59358;52.134;5.596;2024-02-21T14:58:07;11.00;99.90
19206;DHT22;59358;52.134;5.596;2024-02-21T15:00:34;11.00;99.90
19206;DHT22;59358;52.134;5.596;2024-02-21T15:03:01;10.90;99.90
19206;DHT22;59358;52.134;5.596;2024-02-21T15:05:29;10.90;99.90
19206;DHT22;59358;52.134;5.596;2024-02-21T15:07:56;10.90;99.90
19206;DHT22;59358;52.134;5.596;2024-02-21T15:10:24;10.80;99.90
19206;DHT22;59358;52.134;5.596;2024-02-21T15:12:51;11.00;99.90
19206;DHT22;59358;52.134;5.596;2024-02-21T15:15:18;10.80;99.90
19206;DHT22;59358;52.134;5.596;2024-02-21T15:17:44;10.80;99.90
19206;DHT22;59358;52.134;5.596;2024-02-21T15:20:11;10.70;99.90
19206;DHT22;59358;52.134;5.596;2024-02-21T15:22:40;10.50;99.90
19206;DHT22;59358;52.134;5.596;2024-02-21T15:25:08;10.40;99.90
19206;DHT22;59358;52.134;5.596;2024-02-21T15:27:40;10.40;99.90
19206;DHT22;59358;52.134;5.596;2024-02-21T15:30:08;10.30;99.90
19206;DHT22;59358;52.134;5.596;2024-02-21T15:32:36;10.20;99.90
19206;DHT22;59358;52.134;5.596;2024-02-21T15:35:03;10.10;99.90
19206;DHT22;59358;52.134;5.596;2024-02-21T15:37:31;10.10;99.90
19206;DHT22;59358;52.134;5.596;2024-02-21T15:39:59;10.00;99.90
19206;DHT22;59358;52.134;5.596;2024-02-21T15:42:27;10.00;99.90